Cottagegrove, Illinois
Current Conditions -  °F | °C
As of 9:35 PM on Saturday 22 Nov 2014 (Local Time) from KHSB Reporting Station
Clear Clear  
Wind Chill: 58°   Ceiling: Unl
Heat Index: 58°   Visibility: 10mi
Dew Point: 37°   Wind: 8mph
Humidity: 45%   Direction: 190°S
Pressure: 30"   Gusts: NA
Location:  37.8101°N, 88.4411°W
Report Text: KHSB 230335Z AUTO 19007KT 10SM CLR 15/03 A3000 RMK AO2 T01450026
Loading
Personal Weather Stations






























Interactive Weather Map New forecast layout! Learn more

10-Day Weather Forecast

Advertisements
Track Severe Weather on mobile